createdAt,value
2023-01-06T00:01:26.893Z,10.13
2023-01-06T00:03:55.325Z,14.53
2023-01-06T00:06:29.844Z,9.93
2023-01-06T00:09:02.486Z,16.35
2023-01-06T00:11:29.380Z,18.87
2023-01-06T00:13:56.487Z,16.67
2023-01-06T00:16:23.628Z,12.27
2023-01-06T00:18:54.941Z,18.07
2023-01-06T00:21:21.929Z,9.67
2023-01-06T00:23:48.677Z,12.57
2023-01-06T00:26:15.543Z,19.23
2023-01-06T00:28:42.547Z,10.77
2023-01-06T00:31:12.659Z,14.87
2023-01-06T00:33:39.764Z,15.20
2023-01-06T00:36:08.193Z,13.50
2023-01-06T00:38:37.007Z,14.20
2023-01-06T00:41:29.114Z,8.00
2023-01-06T00:43:57.505Z,11.77
2023-01-06T00:46:26.946Z,13.10
2023-01-06T00:49:04.563Z,21.67
2023-01-06T00:51:32.653Z,13.50
2023-01-06T00:54:00.246Z,14.03
2023-01-06T00:56:27.066Z,19.13
2023-01-06T00:58:53.717Z,14.33
2023-01-06T01:01:26.799Z,12.37
2023-01-06T01:03:53.677Z,19.63
2023-01-06T01:06:20.401Z,14.40
2023-01-06T01:08:47.082Z,15.93
2023-01-06T01:11:36.632Z,17.10
2023-01-06T01:14:03.334Z,19.17
2023-01-06T01:16:30.411Z,11.77
2023-01-06T01:18:57.107Z,14.43
2023-01-06T01:21:24.090Z,13.90
2023-01-06T01:23:50.823Z,18.37
2023-01-06T01:26:17.984Z,12.83
2023-01-06T01:28:45.188Z,13.70
2023-01-06T01:31:13.451Z,14.57
2023-01-06T01:33:40.218Z,13.07
2023-01-06T01:36:09.063Z,17.33
2023-01-06T01:38:36.431Z,15.33
2023-01-06T01:41:03.602Z,19.63
2023-01-06T01:44:04.299Z,12.67
2023-01-06T01:46:39.158Z,13.73
2023-01-06T01:49:16.843Z,15.13
2023-01-06T01:51:45.734Z,12.40
2023-01-06T01:54:28.631Z,16.77
2023-01-06T01:57:09.227Z,10.57
2023-01-06T01:59:38.804Z,16.83
2023-01-06T02:02:05.971Z,11.43
2023-01-06T02:04:37.242Z,11.33
2023-01-06T02:07:04.793Z,13.67
2023-01-06T02:09:48.605Z,12.80
2023-01-06T02:12:15.675Z,13.53
2023-01-06T02:14:42.700Z,12.87
2023-01-06T02:17:28.292Z,10.00
2023-01-06T02:20:23.003Z,12.03
2023-01-06T02:23:14.858Z,11.43
2023-01-06T02:26:20.446Z,10.50
2023-01-06T02:29:23.866Z,12.47
2023-01-06T02:32:01.220Z,11.83
2023-01-06T02:35:10.693Z,7.77
2023-01-06T02:38:14.007Z,9.23
2023-01-06T02:41:05.323Z,8.37
2023-01-06T02:44:08.025Z,11.00
2023-01-06T02:46:43.885Z,9.23
2023-01-06T02:49:15.793Z,7.43
2023-01-06T02:52:02.720Z,6.83
2023-01-06T02:55:04.951Z,10.23
2023-01-06T02:57:40.823Z,11.70
2023-01-06T03:00:16.694Z,8.47
2023-01-06T03:02:49.421Z,6.43
2023-01-06T03:05:17.559Z,8.17
2023-01-06T03:07:48.003Z,5.63
2023-01-06T03:10:18.066Z,5.67
2023-01-06T03:12:53.281Z,5.47
2023-01-06T03:15:21.073Z,9.53
2023-01-06T03:17:48.035Z,5.63
2023-01-06T03:20:15.028Z,10.37
2023-01-06T03:22:42.018Z,7.00
2023-01-06T03:25:09.775Z,7.87
2023-01-06T03:27:36.751Z,8.07
2023-01-06T03:30:09.777Z,10.23
2023-01-06T03:33:08.335Z,7.70
2023-01-06T03:35:47.715Z,9.30
2023-01-06T03:38:31.278Z,9.07
2023-01-06T03:41:07.340Z,12.43
2023-01-06T03:44:15.469Z,8.40
2023-01-06T03:46:51.108Z,13.90
2023-01-06T03:49:30.115Z,9.63
2023-01-06T03:52:19.048Z,12.97
2023-01-06T03:55:03.021Z,11.30
2023-01-06T03:57:52.213Z,13.60
2023-01-06T04:00:22.716Z,12.57
2023-01-06T04:02:49.694Z,10.40
2023-01-06T04:05:22.712Z,14.57
2023-01-06T04:07:49.647Z,13.00
2023-01-06T04:10:19.295Z,15.17
2023-01-06T04:12:46.241Z,13.70
2023-01-06T04:15:16.377Z,12.17
2023-01-06T04:17:44.465Z,10.87
2023-01-06T04:20:15.115Z,12.57
2023-01-06T04:22:42.140Z,13.60
2023-01-06T04:25:09.880Z,12.03
2023-01-06T04:27:36.613Z,12.30
2023-01-06T04:30:04.481Z,14.80
2023-01-06T04:32:33.005Z,11.80
2023-01-06T04:34:59.936Z,15.17
2023-01-06T04:37:26.621Z,13.13
2023-01-06T04:39:53.355Z,13.70
2023-01-06T04:42:20.172Z,13.77
2023-01-06T04:44:47.008Z,15.87
2023-01-06T04:47:13.741Z,14.87
2023-01-06T04:49:40.540Z,13.07
2023-01-06T04:52:08.948Z,11.60
2023-01-06T04:54:36.770Z,16.50
2023-01-06T04:57:03.625Z,11.87
2023-01-06T04:59:30.330Z,11.00
2023-01-06T05:01:57.146Z,13.53
2023-01-06T05:04:24.062Z,15.13
2023-01-06T05:06:51.471Z,10.53
2023-01-06T05:09:18.430Z,14.73
2023-01-06T05:11:45.332Z,14.60
2023-01-06T05:14:12.691Z,14.30
2023-01-06T05:16:40.004Z,15.57
2023-01-06T05:19:07.078Z,17.53
2023-01-06T05:21:34.099Z,16.13
2023-01-06T05:24:01.092Z,16.30
2023-01-06T05:26:28.765Z,19.20
2023-01-06T05:28:56.122Z,20.40
2023-01-06T05:31:23.616Z,21.13
2023-01-06T05:33:50.796Z,19.77
2023-01-06T05:36:18.679Z,21.13
2023-01-06T05:38:50.826Z,25.33
2023-01-06T05:41:17.702Z,20.73
2023-01-06T05:43:44.723Z,23.30
2023-01-06T05:46:12.402Z,24.73
2023-01-06T05:48:39.799Z,22.73
2023-01-06T05:51:09.124Z,22.27
2023-01-06T05:53:38.916Z,22.70
2023-01-06T05:56:07.463Z,24.50
2023-01-06T05:58:35.479Z,28.73
2023-01-06T06:01:04.158Z,23.97
2023-01-06T06:03:32.379Z,36.90
2023-01-06T06:06:04.516Z,37.77
2023-01-06T06:08:31.932Z,37.30
2023-01-06T06:11:06.079Z,44.03
2023-01-06T06:13:33.172Z,43.73
2023-01-06T06:16:11.639Z,42.97
2023-01-06T06:18:42.904Z,47.27
2023-01-06T06:21:15.018Z,45.03
2023-01-06T06:23:42.756Z,47.90
2023-01-06T06:26:10.878Z,50.37
2023-01-06T06:28:39.126Z,50.80
2023-01-06T06:31:18.249Z,48.30
2023-01-06T06:33:45.301Z,46.70
2023-01-06T06:36:15.906Z,41.83
2023-01-06T06:38:47.038Z,53.23
2023-01-06T06:41:14.314Z,47.30
2023-01-06T06:43:41.605Z,44.97
2023-01-06T06:46:09.466Z,43.10
2023-01-06T06:48:36.992Z,47.67
2023-01-06T06:51:09.041Z,45.47
2023-01-06T06:53:36.301Z,42.27
2023-01-06T06:56:04.162Z,44.40
2023-01-06T06:58:31.024Z,43.53
2023-01-06T07:00:57.974Z,42.67
2023-01-06T07:03:25.363Z,43.00
2023-01-06T07:05:53.003Z,41.70
2023-01-06T07:08:20.675Z,36.90
2023-01-06T07:10:47.546Z,36.57
2023-01-06T07:13:14.317Z,39.07
2023-01-06T07:15:41.134Z,40.90
2023-01-06T07:18:07.923Z,40.03
2023-01-06T07:20:37.119Z,43.23
2023-01-06T07:23:04.550Z,36.90
2023-01-06T07:25:32.045Z,34.87
2023-01-06T07:28:01.008Z,34.57
2023-01-06T07:30:28.344Z,37.87
2023-01-06T07:32:55.071Z,36.87
2023-01-06T07:35:21.871Z,31.10
2023-01-06T07:37:49.211Z,37.33
2023-01-06T07:40:17.754Z,37.03
2023-01-06T07:42:47.856Z,33.73
2023-01-06T07:45:14.728Z,31.47
2023-01-06T07:47:41.512Z,32.47
2023-01-06T07:50:08.404Z,37.90
2023-01-06T07:52:35.175Z,40.53
2023-01-06T07:55:02.576Z,39.70
2023-01-06T07:57:32.625Z,35.03
2023-01-06T07:59:59.354Z,36.10
2023-01-06T08:02:26.115Z,45.20
2023-01-06T08:04:52.970Z,37.27
2023-01-06T08:07:19.674Z,38.97
2023-01-06T08:09:46.380Z,37.83
2023-01-06T08:12:13.206Z,43.60
2023-01-06T08:14:40.031Z,42.10
2023-01-06T08:17:07.879Z,41.10
2023-01-06T08:19:34.639Z,41.00
2023-01-06T08:22:01.758Z,43.50
2023-01-06T08:24:31.871Z,37.03
2023-01-06T08:26:59.402Z,37.13
2023-01-06T08:29:26.248Z,38.73
2023-01-06T08:31:59.354Z,41.77
2023-01-06T08:34:36.179Z,44.57
2023-01-06T08:37:02.928Z,35.17
2023-01-06T08:39:29.665Z,36.97
2023-01-06T08:41:56.403Z,34.30
2023-01-06T08:44:23.102Z,37.67
2023-01-06T08:46:49.806Z,37.03
2023-01-06T08:49:16.612Z,36.70
2023-01-06T08:51:43.351Z,33.63
2023-01-06T08:54:10.241Z,29.57
2023-01-06T08:56:37.073Z,28.37
2023-01-06T08:59:05.281Z,32.10
2023-01-06T09:01:34.964Z,28.40
2023-01-06T09:04:05.296Z,29.03
2023-01-06T09:06:32.162Z,29.90
2023-01-06T09:08:59.544Z,26.57
2023-01-06T09:11:26.737Z,32.57
2023-01-06T09:13:54.045Z,25.10
2023-01-06T09:16:21.725Z,27.33
2023-01-06T09:18:50.273Z,27.53
2023-01-06T09:21:22.290Z,24.87
2023-01-06T09:23:50.087Z,26.17
2023-01-06T09:26:17.898Z,24.53
2023-01-06T09:28:45.035Z,24.40
2023-01-06T09:31:15.003Z,21.63
2023-01-06T09:33:41.917Z,21.63
2023-01-06T09:36:08.785Z,22.13
2023-01-06T09:38:35.672Z,16.87
2023-01-06T09:41:40.082Z,21.20
2023-01-06T09:44:17.959Z,20.07
2023-01-06T09:46:52.807Z,19.03
2023-01-06T09:49:34.775Z,12.57
2023-01-06T09:52:07.136Z,15.07
2023-01-06T09:54:40.400Z,12.00
2023-01-06T09:57:15.663Z,12.73
2023-01-06T10:00:02.040Z,13.33
2023-01-06T10:02:46.992Z,13.07
2023-01-06T10:05:32.301Z,12.33
2023-01-06T10:08:10.712Z,8.20
2023-01-06T10:11:00.460Z,7.43
2023-01-06T10:13:47.853Z,5.30
2023-01-06T10:16:20.682Z,12.40
2023-01-06T10:19:12.479Z,8.60
2023-01-06T10:21:55.461Z,4.97
2023-01-06T10:24:31.191Z,3.20
2023-01-06T10:27:02.086Z,5.37
2023-01-06T10:29:33.967Z,9.80
2023-01-06T10:32:03.607Z,8.27
2023-01-06T10:34:34.258Z,5.63
2023-01-06T10:37:10.070Z,4.10
2023-01-06T10:39:39.672Z,7.60
2023-01-06T10:42:56.236Z,9.13
2023-01-06T10:45:44.147Z,6.60
2023-01-06T10:48:20.224Z,11.50
2023-01-06T10:50:47.667Z,8.50
2023-01-06T10:53:15.672Z,3.57
2023-01-06T10:55:53.875Z,9.07
2023-01-06T10:58:38.909Z,14.93
2023-01-06T11:01:11.816Z,11.40
2023-01-06T11:03:42.826Z,15.33
2023-01-06T11:06:28.340Z,9.80
2023-01-06T11:08:55.978Z,9.63
2023-01-06T11:11:28.072Z,10.80
2023-01-06T11:13:59.397Z,14.93
2023-01-06T11:16:35.721Z,13.03
2023-01-06T11:19:08.421Z,14.37
2023-01-06T11:21:48.856Z,16.67
2023-01-06T11:24:21.870Z,15.03
2023-01-06T11:27:00.849Z,14.27
2023-01-06T11:29:35.358Z,12.10
2023-01-06T11:32:16.247Z,19.93
2023-01-06T11:34:54.463Z,13.37
2023-01-06T11:37:41.905Z,14.07
2023-01-06T11:40:25.921Z,12.97
2023-01-06T11:42:56.296Z,14.73
2023-01-06T11:45:47.126Z,14.77
2023-01-06T11:48:18.042Z,17.63
2023-01-06T11:51:02.880Z,8.37
2023-01-06T11:53:30.895Z,7.73
2023-01-06T11:56:03.675Z,12.17
2023-01-06T11:59:09.770Z,14.53
2023-01-06T12:01:45.061Z,13.90
2023-01-06T12:04:17.633Z,15.57
2023-01-06T12:06:45.235Z,16.33
2023-01-06T12:09:22.532Z,22.83
2023-01-06T12:11:54.420Z,7.27
2023-01-06T12:14:30.582Z,11.17
2023-01-06T12:16:57.359Z,13.23
2023-01-06T12:19:35.159Z,14.23
2023-01-06T12:22:03.305Z,17.20
2023-01-06T12:24:33.367Z,12.83
2023-01-06T12:27:04.295Z,16.33
2023-01-06T12:29:32.790Z,12.57
2023-01-06T12:32:19.702Z,13.43
2023-01-06T12:34:50.293Z,12.43
2023-01-06T12:37:33.016Z,12.60
2023-01-06T12:40:30.431Z,12.03
2023-01-06T12:43:12.428Z,17.57
2023-01-06T12:46:00.702Z,16.03
2023-01-06T12:48:48.288Z,10.03
2023-01-06T12:51:23.958Z,7.00
2023-01-06T12:53:59.472Z,10.33
2023-01-06T12:56:35.309Z,17.90
2023-01-06T12:59:14.006Z,15.47
2023-01-06T13:02:02.483Z,12.93
2023-01-06T13:04:57.222Z,21.10
2023-01-06T13:07:38.395Z,14.80
2023-01-06T13:10:23.287Z,16.67
2023-01-06T13:13:09.283Z,16.30
2023-01-06T13:15:41.015Z,17.70
2023-01-06T13:18:12.745Z,20.60
2023-01-06T13:20:47.434Z,15.37
2023-01-06T13:23:31.306Z,16.00
2023-01-06T13:26:30.915Z,17.57
2023-01-06T13:29:16.413Z,12.97
2023-01-06T13:31:56.533Z,19.50
2023-01-06T13:34:49.867Z,16.77
2023-01-06T13:37:57.596Z,10.93
2023-01-06T13:40:29.735Z,17.30
2023-01-06T13:42:59.248Z,9.50
2023-01-06T13:45:52.338Z,13.30
2023-01-06T13:48:23.497Z,13.27
2023-01-06T13:50:50.582Z,12.03
2023-01-06T13:53:23.497Z,13.47
2023-01-06T13:56:13.525Z,13.20
2023-01-06T13:58:42.653Z,10.90
2023-01-06T14:01:29.271Z,14.27
2023-01-06T14:04:37.122Z,18.53
2023-01-06T14:07:05.081Z,9.83
2023-01-06T14:09:36.562Z,13.53
2023-01-06T14:12:31.017Z,18.80
2023-01-06T14:15:01.595Z,12.63
2023-01-06T14:17:38.922Z,16.00
2023-01-06T14:20:07.093Z,13.00
2023-01-06T14:22:34.127Z,15.23
2023-01-06T14:25:08.681Z,14.37
2023-01-06T14:27:47.355Z,22.57
2023-01-06T14:30:34.758Z,14.93
2023-01-06T14:33:07.543Z,19.97
2023-01-06T14:35:44.808Z,14.80
2023-01-06T14:38:29.725Z,18.83
2023-01-06T14:41:19.605Z,19.70
2023-01-06T14:44:15.494Z,8.33
2023-01-06T14:46:49.274Z,24.13
2023-01-06T14:49:24.767Z,17.07
2023-01-06T14:51:55.687Z,19.30
2023-01-06T14:54:36.387Z,14.13
2023-01-06T14:57:06.182Z,15.23
2023-01-06T14:59:33.056Z,14.80
2023-01-06T15:02:16.485Z,17.70
2023-01-06T15:04:44.184Z,25.73
2023-01-06T15:07:20.241Z,16.70
2023-01-06T15:09:49.147Z,16.97
2023-01-06T15:12:33.097Z,25.73
2023-01-06T15:15:23.743Z,6.67
2023-01-06T15:17:53.006Z,14.83
2023-01-06T15:20:22.621Z,18.77
2023-01-06T15:22:51.085Z,17.27
2023-01-06T15:25:25.956Z,10.87
2023-01-06T15:27:55.356Z,16.20
2023-01-06T15:30:24.755Z,24.90
2023-01-06T15:32:52.954Z,10.30
2023-01-06T15:35:24.387Z,18.43
2023-01-06T15:37:59.205Z,9.57
2023-01-06T15:40:27.670Z,20.03
2023-01-06T15:42:54.540Z,13.67
2023-01-06T15:45:34.535Z,12.77
2023-01-06T15:48:08.837Z,12.23
2023-01-06T15:50:36.277Z,14.00
2023-01-06T15:53:05.650Z,10.63
2023-01-06T15:55:38.087Z,21.57
2023-01-06T15:58:27.575Z,14.20
2023-01-06T16:00:59.214Z,14.83
2023-01-06T16:03:28.036Z,13.50
2023-01-06T16:06:11.716Z,9.07
2023-01-06T16:08:40.527Z,14.33
2023-01-06T16:11:16.452Z,17.87
2023-01-06T16:13:58.299Z,14.33
2023-01-06T16:16:31.834Z,9.53
2023-01-06T16:18:58.815Z,13.17
2023-01-06T16:21:30.018Z,15.30
2023-01-06T16:23:59.263Z,14.87
2023-01-06T16:26:29.443Z,9.17
2023-01-06T16:28:58.173Z,14.13
2023-01-06T16:31:36.287Z,15.93
2023-01-06T16:34:26.747Z,15.00
2023-01-06T16:36:58.575Z,13.40
2023-01-06T16:39:26.157Z,19.90
2023-01-06T16:41:58.873Z,16.13
2023-01-06T16:44:30.127Z,19.10
2023-01-06T16:46:58.016Z,13.67
2023-01-06T16:49:24.968Z,15.53
2023-01-06T16:51:52.637Z,22.00
2023-01-06T16:54:19.372Z,19.40
2023-01-06T16:56:47.442Z,17.83
2023-01-06T16:59:16.894Z,17.87
2023-01-06T17:01:44.949Z,17.90
2023-01-06T17:04:13.007Z,17.80
2023-01-06T17:06:40.877Z,18.90
2023-01-06T17:09:20.757Z,12.53
2023-01-06T17:11:48.234Z,18.90
2023-01-06T17:14:22.219Z,11.87
2023-01-06T17:16:50.742Z,19.67
2023-01-06T17:19:28.509Z,19.03
2023-01-06T17:22:17.312Z,15.93
2023-01-06T17:24:43.933Z,19.17
2023-01-06T17:27:21.760Z,11.57
2023-01-06T17:29:49.764Z,8.70
2023-01-06T17:32:37.191Z,14.47
2023-01-06T17:35:16.925Z,11.63
2023-01-06T17:37:43.666Z,17.30
2023-01-06T17:40:17.105Z,15.63
2023-01-06T17:42:44.129Z,23.00
2023-01-06T17:45:29.964Z,11.20
2023-01-06T17:47:57.172Z,10.93
2023-01-06T17:50:34.982Z,15.67
2023-01-06T17:53:41.291Z,14.80
2023-01-06T17:56:10.495Z,14.50
2023-01-06T17:58:39.822Z,11.77
2023-01-06T18:01:16.826Z,14.83
2023-01-06T18:03:44.203Z,17.07
2023-01-06T18:06:25.987Z,17.90
2023-01-06T18:09:17.652Z,17.20
2023-01-06T18:11:47.134Z,14.77
2023-01-06T18:14:27.940Z,13.47
2023-01-06T18:16:57.408Z,12.43
2023-01-06T18:19:28.280Z,12.17
2023-01-06T18:21:55.563Z,14.10
2023-01-06T18:24:32.219Z,21.20
2023-01-06T18:27:01.140Z,14.50
2023-01-06T18:29:39.092Z,11.70
2023-01-06T18:32:21.106Z,12.87
2023-01-06T18:34:53.547Z,18.43
2023-01-06T18:37:26.154Z,14.20
2023-01-06T18:39:57.286Z,12.20
2023-01-06T18:42:27.873Z,12.70
2023-01-06T18:45:20.930Z,18.63
2023-01-06T18:47:55.220Z,19.27
2023-01-06T18:50:32.920Z,16.33
2023-01-06T18:53:15.025Z,16.80
2023-01-06T18:55:47.138Z,10.83
2023-01-06T18:58:47.560Z,18.73
2023-01-06T19:01:26.311Z,13.10
2023-01-06T19:04:24.817Z,19.27
2023-01-06T19:07:15.638Z,22.50
2023-01-06T19:09:44.582Z,16.43
2023-01-06T19:12:14.181Z,10.30
2023-01-06T19:14:43.299Z,19.97
2023-01-06T19:17:20.468Z,13.07
2023-01-06T19:19:47.992Z,14.10
2023-01-06T19:22:14.840Z,14.30
2023-01-06T19:24:45.576Z,14.97
2023-01-06T19:27:34.786Z,22.97
2023-01-06T19:30:13.608Z,17.63
2023-01-06T19:32:40.670Z,16.60
2023-01-06T19:35:29.371Z,11.93
2023-01-06T19:38:09.589Z,11.03
2023-01-06T19:40:41.984Z,11.00
2023-01-06T19:43:18.180Z,16.47
2023-01-06T19:45:45.262Z,13.13
2023-01-06T19:48:37.440Z,13.30
2023-01-06T19:51:27.600Z,15.70
2023-01-06T19:53:58.626Z,10.47
2023-01-06T19:56:33.845Z,14.80
2023-01-06T19:59:29.102Z,16.40
2023-01-06T20:02:07.948Z,11.40
2023-01-06T20:04:35.617Z,11.17
2023-01-06T20:07:02.880Z,16.20
2023-01-06T20:09:33.250Z,16.87
2023-01-06T20:12:00.368Z,16.10
2023-01-06T20:14:27.163Z,13.57
2023-01-06T20:16:53.947Z,10.40
2023-01-06T20:19:21.681Z,17.93
2023-01-06T20:21:48.654Z,22.53
2023-01-06T20:24:15.528Z,19.27
2023-01-06T20:26:42.306Z,9.57
2023-01-06T20:29:09.577Z,10.20
2023-01-06T20:31:36.456Z,12.80
2023-01-06T20:34:03.517Z,18.13
2023-01-06T20:36:30.505Z,11.03
2023-01-06T20:38:57.206Z,17.10
2023-01-06T20:41:23.949Z,9.57
2023-01-06T20:43:50.612Z,11.33
2023-01-06T20:46:17.371Z,13.73
2023-01-06T20:48:44.881Z,11.47
2023-01-06T20:51:11.663Z,14.33
2023-01-06T20:53:38.488Z,12.47
2023-01-06T20:56:05.654Z,13.77
2023-01-06T20:58:32.426Z,10.50
2023-01-06T21:00:59.288Z,20.00
2023-01-06T21:03:25.963Z,11.77
2023-01-06T21:05:52.864Z,21.90
2023-01-06T21:08:19.643Z,16.33
2023-01-06T21:10:46.383Z,22.93
2023-01-06T21:13:13.113Z,25.57
2023-01-06T21:15:39.771Z,10.57
2023-01-06T21:18:06.437Z,10.83
2023-01-06T21:20:33.100Z,10.43
2023-01-06T21:22:59.958Z,14.57
2023-01-06T21:25:26.721Z,12.63
2023-01-06T21:27:53.464Z,16.20
2023-01-06T21:30:20.295Z,16.10
2023-01-06T21:32:47.094Z,14.10
2023-01-06T21:35:13.969Z,16.13
2023-01-06T21:37:40.711Z,12.13
2023-01-06T21:40:11.635Z,14.73
2023-01-06T21:42:57.326Z,21.17
2023-01-06T21:45:24.256Z,18.70
2023-01-06T21:47:51.275Z,17.27
2023-01-06T21:50:18.151Z,15.47
2023-01-06T21:52:46.689Z,9.87
2023-01-06T21:55:13.618Z,14.73
2023-01-06T21:57:43.190Z,14.43
2023-01-06T22:00:10.828Z,16.47
2023-01-06T22:02:37.759Z,13.10
2023-01-06T22:05:05.233Z,16.47
2023-01-06T22:07:36.772Z,14.30
2023-01-06T22:10:06.029Z,14.27
2023-01-06T22:12:33.833Z,14.70
2023-01-06T22:15:01.198Z,11.87
2023-01-06T22:17:28.013Z,14.77
2023-01-06T22:19:55.674Z,23.30
2023-01-06T22:22:23.605Z,9.97
2023-01-06T22:24:54.036Z,7.47
2023-01-06T22:27:20.765Z,14.80
2023-01-06T22:29:47.485Z,10.30
2023-01-06T22:32:14.196Z,12.30
2023-01-06T22:34:40.905Z,11.47
2023-01-06T22:37:07.593Z,9.67
2023-01-06T22:39:34.299Z,12.40
2023-01-06T22:42:01.069Z,14.57
2023-01-06T22:44:27.839Z,11.17
2023-01-06T22:46:54.644Z,9.30
2023-01-06T22:49:21.469Z,9.23
2023-01-06T22:51:48.201Z,14.20
2023-01-06T22:54:14.870Z,10.37
2023-01-06T22:56:42.031Z,16.63
2023-01-06T22:59:09.391Z,17.50
2023-01-06T23:01:36.109Z,10.63
2023-01-06T23:04:03.402Z,23.73
2023-01-06T23:06:30.229Z,12.50
2023-01-06T23:09:00.735Z,13.43
2023-01-06T23:11:28.866Z,15.37
2023-01-06T23:13:57.813Z,15.37
2023-01-06T23:16:26.649Z,12.43
2023-01-06T23:18:54.109Z,11.30
2023-01-06T23:21:26.634Z,8.93
2023-01-06T23:23:54.048Z,12.00
2023-01-06T23:26:28.741Z,12.03
2023-01-06T23:28:56.947Z,11.30
2023-01-06T23:31:31.943Z,18.83
2023-01-06T23:34:02.383Z,15.90
2023-01-06T23:36:32.593Z,14.50
2023-01-06T23:39:03.211Z,12.00
2023-01-06T23:41:32.500Z,13.77
2023-01-06T23:43:59.848Z,12.83
2023-01-06T23:46:37.891Z,10.50
2023-01-06T23:49:05.331Z,10.80
2023-01-06T23:51:33.248Z,17.00
2023-01-06T23:54:01.689Z,10.93
2023-01-06T23:56:31.004Z,15.07
2023-01-06T23:58:59.902Z,12.50
